sensor_id;sensor_type;location;lat;lon;timestamp;pressure;altitude;pressure_sealevel;temperature;humidity
4469;BME280;2247;42.666;23.292;2023-02-14T00:00:26;95756.22;;;7.13;49.39
4469;BME280;2247;42.666;23.292;2023-02-14T00:02:53;95774.66;;;7.31;49.58
4469;BME280;2247;42.666;23.292;2023-02-14T00:05:22;95772.03;;;7.68;48.78
4469;BME280;2247;42.666;23.292;2023-02-14T00:07:49;95765.91;;;7.37;49.37
4469;BME280;2247;42.666;23.292;2023-02-14T00:10:16;95754.88;;;7.10;49.95
4469;BME280;2247;42.666;23.292;2023-02-14T00:12:43;95771.53;;;7.16;50.02
4469;BME280;2247;42.666;23.292;2023-02-14T00:15:11;95765.75;;;7.32;49.52
4469;BME280;2247;42.666;23.292;2023-02-14T00:17:49;95770.72;;;7.40;49.55
4469;BME280;2247;42.666;23.292;2023-02-14T00:20:17;95769.63;;;7.48;49.20
4469;BME280;2247;42.666;23.292;2023-02-14T00:22:45;95781.72;;;7.49;49.32
4469;BME280;2247;42.666;23.292;2023-02-14T00:25:12;95777.47;;;7.30;49.97
4469;BME280;2247;42.666;23.292;2023-02-14T00:27:39;95776.25;;;7.32;50.03
4469;BME280;2247;42.666;23.292;2023-02-14T00:30:07;95778.38;;;7.42;49.73
4469;BME280;2247;42.666;23.292;2023-02-14T00:32:36;95728.59;;;7.17;49.92
4469;BME280;2247;42.666;23.292;2023-02-14T00:35:03;95776.34;;;7.19;50.62
4469;BME280;2247;42.666;23.292;2023-02-14T00:37:30;95780.63;;;7.38;50.55
4469;BME280;2247;42.666;23.292;2023-02-14T00:39:59;95770.16;;;7.75;49.33
4469;BME280;2247;42.666;23.292;2023-02-14T00:42:26;95769.13;;;7.76;49.09
4469;BME280;2247;42.666;23.292;2023-02-14T00:44:53;95776.53;;;7.42;50.18
4469;BME280;2247;42.666;23.292;2023-02-14T00:47:19;95769.41;;;7.68;49.68
4469;BME280;2247;42.666;23.292;2023-02-14T00:49:46;95774.31;;;7.46;50.25
4469;BME280;2247;42.666;23.292;2023-02-14T00:52:13;95771.03;;;7.69;49.51
4469;BME280;2247;42.666;23.292;2023-02-14T00:54:40;95762.22;;;7.63;49.73
4469;BME280;2247;42.666;23.292;2023-02-14T00:57:09;95761.41;;;7.63;49.66
4469;BME280;2247;42.666;23.292;2023-02-14T00:59:36;95759.47;;;7.33;50.70
4469;BME280;2247;42.666;23.292;2023-02-14T01:02:03;95756.84;;;7.33;50.76
4469;BME280;2247;42.666;23.292;2023-02-14T01:04:29;95752.66;;;7.50;50.16
4469;BME280;2247;42.666;23.292;2023-02-14T01:06:56;95754.13;;;7.65;49.53
4469;BME280;2247;42.666;23.292;2023-02-14T01:09:24;95745.53;;;7.58;49.57
4469;BME280;2247;42.666;23.292;2023-02-14T01:11:51;95735.41;;;7.79;49.09
4469;BME280;2247;42.666;23.292;2023-02-14T01:14:19;95754.13;;;7.65;49.50
4469;BME280;2247;42.666;23.292;2023-02-14T01:16:46;95745.09;;;7.61;49.42
4469;BME280;2247;42.666;23.292;2023-02-14T01:19:12;95738.47;;;7.76;49.10
4469;BME280;2247;42.666;23.292;2023-02-14T01:21:40;95725.28;;;7.46;49.61
4469;BME280;2247;42.666;23.292;2023-02-14T01:24:07;95723.66;;;7.27;50.45
4469;BME280;2247;42.666;23.292;2023-02-14T01:26:35;95732.19;;;7.41;50.26
4469;BME280;2247;42.666;23.292;2023-02-14T01:29:02;95733.28;;;7.51;49.81
4469;BME280;2247;42.666;23.292;2023-02-14T01:31:32;95721.19;;;7.69;49.51
4469;BME280;2247;42.666;23.292;2023-02-14T01:34:00;95730.25;;;7.73;49.46
4469;BME280;2247;42.666;23.292;2023-02-14T01:36:29;95726.72;;;7.61;49.68
4469;BME280;2247;42.666;23.292;2023-02-14T01:38:58;95732.03;;;7.90;49.08
4469;BME280;2247;42.666;23.292;2023-02-14T01:41:28;95722.59;;;8.19;47.88
4469;BME280;2247;42.666;23.292;2023-02-14T01:43:58;95700.59;;;8.02;48.00
4469;BME280;2247;42.666;23.292;2023-02-14T01:46:26;95699.94;;;8.07;48.29
4469;BME280;2247;42.666;23.292;2023-02-14T01:48:57;95702.19;;;8.03;48.03
4469;BME280;2247;42.666;23.292;2023-02-14T01:51:27;95701.06;;;7.99;47.96
4469;BME280;2247;42.666;23.292;2023-02-14T01:53:55;95672.69;;;7.89;48.36
4469;BME280;2247;42.666;23.292;2023-02-14T01:56:26;95678.72;;;7.78;48.53
4469;BME280;2247;42.666;23.292;2023-02-14T01:58:59;95701.50;;;7.78;48.81
4469;BME280;2247;42.666;23.292;2023-02-14T02:01:28;95696.22;;;7.96;48.49
4469;BME280;2247;42.666;23.292;2023-02-14T02:04:00;95684.50;;;7.99;47.99
4469;BME280;2247;42.666;23.292;2023-02-14T02:06:30;95696.91;;;7.91;48.18
4469;BME280;2247;42.666;23.292;2023-02-14T02:09:06;95697.72;;;7.56;49.33
4469;BME280;2247;42.666;23.292;2023-02-14T02:11:51;95692.50;;;7.56;49.22
4469;BME280;2247;42.666;23.292;2023-02-14T02:14:20;95700.78;;;7.34;49.77
4469;BME280;2247;42.666;23.292;2023-02-14T02:16:59;95688.44;;;7.60;48.84
4469;BME280;2247;42.666;23.292;2023-02-14T02:20:02;95696.06;;;7.61;49.15
4469;BME280;2247;42.666;23.292;2023-02-14T02:29:26;95688.34;;;7.66;48.69
4469;BME280;2247;42.666;23.292;2023-02-14T02:32:12;95669.03;;;7.61;48.81
4469;BME280;2247;42.666;23.292;2023-02-14T02:38:00;95668.47;;;7.88;48.39
4469;BME280;2247;42.666;23.292;2023-02-14T02:40:43;95653.69;;;7.94;48.34
4469;BME280;2247;42.666;23.292;2023-02-14T02:43:19;95652.97;;;7.87;48.19
4469;BME280;2247;42.666;23.292;2023-02-14T02:45:57;95650.09;;;7.88;48.18
4469;BME280;2247;42.666;23.292;2023-02-14T02:48:48;95652.03;;;8.11;47.98
4469;BME280;2247;42.666;23.292;2023-02-14T02:51:20;95653.44;;;7.96;47.82
4469;BME280;2247;42.666;23.292;2023-02-14T02:54:13;95657.63;;;7.85;48.25
4469;BME280;2247;42.666;23.292;2023-02-14T02:56:49;95652.09;;;7.93;48.12
4469;BME280;2247;42.666;23.292;2023-02-14T02:59:23;95664.91;;;7.83;48.28
4469;BME280;2247;42.666;23.292;2023-02-14T03:01:54;95651.78;;;7.83;48.16
4469;BME280;2247;42.666;23.292;2023-02-14T03:04:22;95663.94;;;7.47;49.16
4469;BME280;2247;42.666;23.292;2023-02-14T03:07:07;95651.38;;;7.68;48.52
4469;BME280;2247;42.666;23.292;2023-02-14T03:09:54;95667.28;;;7.36;49.55
4469;BME280;2247;42.666;23.292;2023-02-14T03:12:50;95661.19;;;7.42;49.62
4469;BME280;2247;42.666;23.292;2023-02-14T03:15:30;95659.03;;;7.69;48.68
4469;BME280;2247;42.666;23.292;2023-02-14T03:18:06;95645.91;;;7.39;49.64
4469;BME280;2247;42.666;23.292;2023-02-14T03:20:45;95639.22;;;7.55;49.62
4469;BME280;2247;42.666;23.292;2023-02-14T03:23:19;95637.38;;;7.44;49.47
4469;BME280;2247;42.666;23.292;2023-02-14T03:26:00;95641.97;;;7.30;49.84
4469;BME280;2247;42.666;23.292;2023-02-14T03:28:34;95641.09;;;7.36;49.75
4469;BME280;2247;42.666;23.292;2023-02-14T03:31:08;95622.59;;;7.79;48.18
4469;BME280;2247;42.666;23.292;2023-02-14T03:33:42;95632.78;;;7.39;49.23
4469;BME280;2247;42.666;23.292;2023-02-14T03:36:12;95630.59;;;7.18;49.87
4469;BME280;2247;42.666;23.292;2023-02-14T03:38:43;95634.38;;;7.22;49.68
4469;BME280;2247;42.666;23.292;2023-02-14T03:41:18;95642.03;;;7.24;49.72
4469;BME280;2247;42.666;23.292;2023-02-14T03:43:49;95642.97;;;7.29;49.67
4469;BME280;2247;42.666;23.292;2023-02-14T03:46:19;95629.88;;;7.29;49.58
4469;BME280;2247;42.666;23.292;2023-02-14T03:48:49;95630.00;;;7.16;49.76
4469;BME280;2247;42.666;23.292;2023-02-14T03:51:19;95631.91;;;7.09;50.12
4469;BME280;2247;42.666;23.292;2023-02-14T03:53:51;95618.13;;;6.95;50.47
4469;BME280;2247;42.666;23.292;2023-02-14T03:56:26;95622.28;;;7.03;50.43
4469;BME280;2247;42.666;23.292;2023-02-14T03:58:57;95619.59;;;7.09;49.95
4469;BME280;2247;42.666;23.292;2023-02-14T04:01:31;95603.66;;;7.29;49.30
4469;BME280;2247;42.666;23.292;2023-02-14T04:04:01;95602.63;;;7.30;49.36
4469;BME280;2247;42.666;23.292;2023-02-14T04:06:29;95597.41;;;7.30;49.25
4469;BME280;2247;42.666;23.292;2023-02-14T04:08:57;95591.06;;;7.38;49.08
4469;BME280;2247;42.666;23.292;2023-02-14T04:11:25;95606.63;;;7.51;48.50
4469;BME280;2247;42.666;23.292;2023-02-14T04:13:53;95605.56;;;7.22;49.22
4469;BME280;2247;42.666;23.292;2023-02-14T04:16:20;95604.25;;;7.31;49.09
4469;BME280;2247;42.666;23.292;2023-02-14T04:18:47;95596.22;;;7.08;49.60
4469;BME280;2247;42.666;23.292;2023-02-14T04:21:31;95612.09;;;7.31;49.03
4469;BME280;2247;42.666;23.292;2023-02-14T04:23:57;95598.63;;;7.46;48.68
4469;BME280;2247;42.666;23.292;2023-02-14T04:26:26;95599.00;;;7.31;49.41
4469;BME280;2247;42.666;23.292;2023-02-14T04:28:53;95613.91;;;6.94;49.96
4469;BME280;2247;42.666;23.292;2023-02-14T04:31:20;95611.16;;;6.89;50.05
4469;BME280;2247;42.666;23.292;2023-02-14T04:33:47;95610.22;;;7.02;50.13
4469;BME280;2247;42.666;23.292;2023-02-14T04:36:15;95604.59;;;7.17;49.38
4469;BME280;2247;42.666;23.292;2023-02-14T04:38:42;95597.09;;;7.38;49.02
4469;BME280;2247;42.666;23.292;2023-02-14T04:41:09;95603.13;;;7.21;49.12
4469;BME280;2247;42.666;23.292;2023-02-14T04:43:38;95604.91;;;6.90;49.94
4469;BME280;2247;42.666;23.292;2023-02-14T04:46:04;95592.03;;;7.25;49.42
4469;BME280;2247;42.666;23.292;2023-02-14T04:48:31;95587.25;;;7.52;48.41
4469;BME280;2247;42.666;23.292;2023-02-14T04:50:58;95578.91;;;7.55;48.39
4469;BME280;2247;42.666;23.292;2023-02-14T04:53:25;95577.16;;;7.37;48.58
4469;BME280;2247;42.666;23.292;2023-02-14T04:55:52;95579.38;;;7.34;48.80
4469;BME280;2247;42.666;23.292;2023-02-14T04:58:18;95575.84;;;7.28;48.88
4469;BME280;2247;42.666;23.292;2023-02-14T05:00:47;95582.31;;;7.07;48.93
4469;BME280;2247;42.666;23.292;2023-02-14T05:03:13;95577.44;;;7.29;48.68
4469;BME280;2247;42.666;23.292;2023-02-14T05:05:41;95580.44;;;7.15;49.19
4469;BME280;2247;42.666;23.292;2023-02-14T05:08:08;95591.00;;;7.08;49.22
4469;BME280;2247;42.666;23.292;2023-02-14T05:10:35;95587.50;;;6.96;49.70
4469;BME280;2247;42.666;23.292;2023-02-14T05:13:01;95587.22;;;7.04;49.58
4469;BME280;2247;42.666;23.292;2023-02-14T05:15:28;95587.81;;;7.54;48.36
4469;BME280;2247;42.666;23.292;2023-02-14T05:17:57;95578.00;;;7.49;47.83
4469;BME280;2247;42.666;23.292;2023-02-14T05:20:27;95581.78;;;7.35;48.34
4469;BME280;2247;42.666;23.292;2023-02-14T05:22:55;95589.16;;;7.45;48.08
4469;BME280;2247;42.666;23.292;2023-02-14T05:25:24;95561.09;;;7.45;47.78
4469;BME280;2247;42.666;23.292;2023-02-14T05:27:52;95581.44;;;7.32;48.44
4469;BME280;2247;42.666;23.292;2023-02-14T05:30:19;95570.88;;;7.38;48.53
4469;BME280;2247;42.666;23.292;2023-02-14T05:32:51;95576.03;;;7.27;48.87
4469;BME280;2247;42.666;23.292;2023-02-14T05:35:21;95577.88;;;7.26;48.93
4469;BME280;2247;42.666;23.292;2023-02-14T05:37:59;95575.19;;;7.15;48.93
4469;BME280;2247;42.666;23.292;2023-02-14T05:40:26;95574.19;;;7.16;49.22
4469;BME280;2247;42.666;23.292;2023-02-14T05:42:54;95580.47;;;7.44;48.47
4469;BME280;2247;42.666;23.292;2023-02-14T05:45:22;95572.31;;;7.34;48.77
4469;BME280;2247;42.666;23.292;2023-02-14T05:47:50;95576.22;;;7.32;48.96
4469;BME280;2247;42.666;23.292;2023-02-14T05:50:17;95562.44;;;7.36;48.71
4469;BME280;2247;42.666;23.292;2023-02-14T05:52:46;95564.91;;;7.31;48.83
4469;BME280;2247;42.666;23.292;2023-02-14T05:55:13;95570.00;;;7.26;49.28
4469;BME280;2247;42.666;23.292;2023-02-14T05:57:40;95569.88;;;7.21;49.46
4469;BME280;2247;42.666;23.292;2023-02-14T06:00:08;95569.28;;;7.19;49.36
4469;BME280;2247;42.666;23.292;2023-02-14T06:02:35;95568.41;;;7.07;49.59
4469;BME280;2247;42.666;23.292;2023-02-14T06:05:02;95567.69;;;7.18;49.29
4469;BME280;2247;42.666;23.292;2023-02-14T06:07:29;95566.66;;;7.19;49.27
4469;BME280;2247;42.666;23.292;2023-02-14T06:09:58;95573.16;;;6.98;49.67
4469;BME280;2247;42.666;23.292;2023-02-14T06:12:25;95586.69;;;7.13;49.73
4469;BME280;2247;42.666;23.292;2023-02-14T06:14:53;95581.81;;;7.17;49.43
4469;BME280;2247;42.666;23.292;2023-02-14T06:17:20;95593.97;;;7.30;49.22
4469;BME280;2247;42.666;23.292;2023-02-14T06:19:46;95593.47;;;7.39;48.73
4469;BME280;2247;42.666;23.292;2023-02-14T06:22:14;95577.31;;;7.54;48.32
4469;BME280;2247;42.666;23.292;2023-02-14T06:24:41;95579.63;;;7.32;49.20
4469;BME280;2247;42.666;23.292;2023-02-14T06:27:09;95583.91;;;7.45;49.04
4469;BME280;2247;42.666;23.292;2023-02-14T06:29:36;95587.75;;;7.42;49.13
4469;BME280;2247;42.666;23.292;2023-02-14T06:32:03;95577.84;;;7.44;48.91
4469;BME280;2247;42.666;23.292;2023-02-14T06:34:31;95584.03;;;7.50;48.82
4469;BME280;2247;42.666;23.292;2023-02-14T06:36:58;95580.84;;;7.78;48.40
4469;BME280;2247;42.666;23.292;2023-02-14T06:39:25;95583.28;;;7.91;47.83
4469;BME280;2247;42.666;23.292;2023-02-14T06:41:52;95581.66;;;7.90;48.20
4469;BME280;2247;42.666;23.292;2023-02-14T06:44:20;95583.38;;;7.84;47.92
4469;BME280;2247;42.666;23.292;2023-02-14T06:46:47;95579.50;;;7.87;48.18
4469;BME280;2247;42.666;23.292;2023-02-14T06:49:13;95574.91;;;7.82;48.21
4469;BME280;2247;42.666;23.292;2023-02-14T06:51:41;95576.47;;;7.72;48.43
4469;BME280;2247;42.666;23.292;2023-02-14T06:54:08;95571.31;;;7.95;48.26
4469;BME280;2247;42.666;23.292;2023-02-14T06:56:35;95571.56;;;8.05;48.17
4469;BME280;2247;42.666;23.292;2023-02-14T06:59:02;95560.34;;;7.98;48.00
4469;BME280;2247;42.666;23.292;2023-02-14T07:01:30;95568.50;;;8.08;48.26
4469;BME280;2247;42.666;23.292;2023-02-14T07:03:57;95561.75;;;8.12;47.72
4469;BME280;2247;42.666;23.292;2023-02-14T07:06:24;95569.13;;;7.92;48.37
4469;BME280;2247;42.666;23.292;2023-02-14T07:08:51;95567.41;;;7.86;48.87
4469;BME280;2247;42.666;23.292;2023-02-14T07:11:18;95551.84;;;7.73;49.49
4469;BME280;2247;42.666;23.292;2023-02-14T07:13:45;95553.00;;;7.88;49.26
4469;BME280;2247;42.666;23.292;2023-02-14T07:16:12;95551.25;;;7.59;49.90
4469;BME280;2247;42.666;23.292;2023-02-14T07:18:40;95555.44;;;7.30;50.96
4469;BME280;2247;42.666;23.292;2023-02-14T07:21:07;95555.16;;;7.38;50.89
4469;BME280;2247;42.666;23.292;2023-02-14T07:23:34;95569.28;;;7.19;51.63
4469;BME280;2247;42.666;23.292;2023-02-14T07:26:01;95558.38;;;7.22;51.85
4469;BME280;2247;42.666;23.292;2023-02-14T07:28:29;95571.03;;;7.25;51.68
4469;BME280;2247;42.666;23.292;2023-02-14T07:30:58;95567.03;;;7.23;51.98
4469;BME280;2247;42.666;23.292;2023-02-14T07:33:25;95574.00;;;7.29;51.96
4469;BME280;2247;42.666;23.292;2023-02-14T07:35:53;95572.63;;;7.26;52.08
4469;BME280;2247;42.666;23.292;2023-02-14T07:38:20;95569.06;;;7.21;52.42
4469;BME280;2247;42.666;23.292;2023-02-14T07:40:47;95574.19;;;6.97;53.04
4469;BME280;2247;42.666;23.292;2023-02-14T07:43:14;95568.56;;;6.94;53.59
4469;BME280;2247;42.666;23.292;2023-02-14T07:45:41;95571.97;;;7.12;53.20
4469;BME280;2247;42.666;23.292;2023-02-14T07:48:08;95575.03;;;7.28;53.92
4469;BME280;2247;42.666;23.292;2023-02-14T07:50:35;95577.72;;;7.39;56.52
4469;BME280;2247;42.666;23.292;2023-02-14T07:53:05;95580.41;;;7.51;56.66
4469;BME280;2247;42.666;23.292;2023-02-14T07:55:33;95584.22;;;7.67;57.46
4469;BME280;2247;42.666;23.292;2023-02-14T07:57:59;95588.72;;;7.78;56.02
4469;BME280;2247;42.666;23.292;2023-02-14T08:00:26;95588.13;;;7.76;55.91
4469;BME280;2247;42.666;23.292;2023-02-14T08:02:55;95584.56;;;7.70;57.18
4469;BME280;2247;42.666;23.292;2023-02-14T08:05:22;95591.41;;;7.71;56.98
4469;BME280;2247;42.666;23.292;2023-02-14T08:07:49;95582.41;;;7.67;56.82
4469;BME280;2247;42.666;23.292;2023-02-14T08:10:20;95606.06;;;7.79;57.49
4469;BME280;2247;42.666;23.292;2023-02-14T08:12:46;95585.75;;;7.74;57.48
4469;BME280;2247;42.666;23.292;2023-02-14T08:15:26;95590.09;;;7.80;56.68
4469;BME280;2247;42.666;23.292;2023-02-14T08:18:11;95597.19;;;7.62;54.61
4469;BME280;2247;42.666;23.292;2023-02-14T08:20:38;95602.75;;;7.54;55.02
4469;BME280;2247;42.666;23.292;2023-02-14T08:23:05;95600.28;;;7.40;55.16
4469;BME280;2247;42.666;23.292;2023-02-14T08:25:34;95598.91;;;7.20;55.41
4469;BME280;2247;42.666;23.292;2023-02-14T08:28:02;95612.16;;;7.06;55.78
4469;BME280;2247;42.666;23.292;2023-02-14T08:30:29;95606.44;;;6.98;55.97
4469;BME280;2247;42.666;23.292;2023-02-14T08:32:56;95606.44;;;6.98;56.20
4469;BME280;2247;42.666;23.292;2023-02-14T08:35:23;95603.06;;;7.09;55.72
4469;BME280;2247;42.666;23.292;2023-02-14T08:37:51;95605.69;;;6.91;56.44
4469;BME280;2247;42.666;23.292;2023-02-14T08:40:18;95608.59;;;6.83;57.07
4469;BME280;2247;42.666;23.292;2023-02-14T08:42:47;95605.03;;;6.95;56.86
4469;BME280;2247;42.666;23.292;2023-02-14T08:45:14;95609.34;;;6.90;57.24
4469;BME280;2247;42.666;23.292;2023-02-14T08:47:41;95619.16;;;6.94;57.36
4469;BME280;2247;42.666;23.292;2023-02-14T08:50:10;95610.22;;;6.84;57.69
4469;BME280;2247;42.666;23.292;2023-02-14T08:52:37;95615.38;;;6.90;57.58
4469;BME280;2247;42.666;23.292;2023-02-14T08:55:05;95614.72;;;6.77;58.19
4469;BME280;2247;42.666;23.292;2023-02-14T08:57:32;95614.59;;;6.65;58.68
4469;BME280;2247;42.666;23.292;2023-02-14T09:00:03;95609.34;;;6.65;58.61
4469;BME280;2247;42.666;23.292;2023-02-14T09:02:30;95614.38;;;6.66;58.73
4469;BME280;2247;42.666;23.292;2023-02-14T09:04:57;95612.69;;;6.54;59.17
4469;BME280;2247;42.666;23.292;2023-02-14T09:07:25;95617.53;;;6.50;59.38
4469;BME280;2247;42.666;23.292;2023-02-14T09:09:52;95598.31;;;6.63;59.10
4469;BME280;2247;42.666;23.292;2023-02-14T09:12:21;95602.16;;;6.60;59.21
4469;BME280;2247;42.666;23.292;2023-02-14T09:14:48;95603.78;;;6.80;58.55
4469;BME280;2247;42.666;23.292;2023-02-14T09:17:16;95598.13;;;6.83;60.58
4469;BME280;2247;42.666;23.292;2023-02-14T09:19:43;95587.56;;;6.89;58.53
4469;BME280;2247;42.666;23.292;2023-02-14T09:22:10;95582.41;;;6.83;58.45
4469;BME280;2247;42.666;23.292;2023-02-14T09:24:38;95576.72;;;6.86;58.21
4469;BME280;2247;42.666;23.292;2023-02-14T09:27:08;95574.09;;;6.67;58.61
4469;BME280;2247;42.666;23.292;2023-02-14T09:29:35;95577.66;;;6.73;58.41
4469;BME280;2247;42.666;23.292;2023-02-14T09:32:04;95598.69;;;6.85;57.43
4469;BME280;2247;42.666;23.292;2023-02-14T09:34:33;95584.16;;;6.70;57.66
4469;BME280;2247;42.666;23.292;2023-02-14T09:37:01;95593.28;;;6.61;58.39
4469;BME280;2247;42.666;23.292;2023-02-14T09:39:45;95595.03;;;6.67;58.11
4469;BME280;2247;42.666;23.292;2023-02-14T09:42:32;95599.56;;;6.79;57.79
4469;BME280;2247;42.666;23.292;2023-02-14T09:45:07;95594.56;;;6.77;57.70
4469;BME280;2247;42.666;23.292;2023-02-14T09:47:41;95578.41;;;6.80;57.54
4469;BME280;2247;42.666;23.292;2023-02-14T09:50:16;95584.16;;;6.70;57.77
4469;BME280;2247;42.666;23.292;2023-02-14T09:52:51;95583.03;;;6.78;57.78
4469;BME280;2247;42.666;23.292;2023-02-14T09:55:25;95578.31;;;6.68;57.46
4469;BME280;2247;42.666;23.292;2023-02-14T09:58:05;95585.84;;;6.58;57.36
4469;BME280;2247;42.666;23.292;2023-02-14T10:00:39;95574.16;;;6.61;57.50
4469;BME280;2247;42.666;23.292;2023-02-14T10:03:44;95577.84;;;6.53;57.90
4469;BME280;2247;42.666;23.292;2023-02-14T10:06:56;95565.28;;;6.80;56.65
4469;BME280;2247;42.666;23.292;2023-02-14T10:09:42;95566.31;;;6.79;57.01
4469;BME280;2247;42.666;23.292;2023-02-14T10:12:18;95558.09;;;6.76;57.03
4469;BME280;2247;42.666;23.292;2023-02-14T10:14:48;95561.38;;;6.89;56.32
4469;BME280;2247;42.666;23.292;2023-02-14T10:17:21;95556.06;;;6.78;56.17
4469;BME280;2247;42.666;23.292;2023-02-14T10:19:54;95548.91;;;6.66;56.49
4469;BME280;2247;42.666;23.292;2023-02-14T10:22:42;95544.19;;;6.57;56.54
4469;BME280;2247;42.666;23.292;2023-02-14T10:25:17;95553.75;;;6.45;56.68
4469;BME280;2247;42.666;23.292;2023-02-14T10:27:47;95556.69;;;6.55;56.47
4469;BME280;2247;42.666;23.292;2023-02-14T10:30:16;95553.00;;;6.62;56.19
4469;BME280;2247;42.666;23.292;2023-02-14T10:32:46;95556.00;;;6.84;55.67
4469;BME280;2247;42.666;23.292;2023-02-14T10:35:21;95545.72;;;6.83;55.89
4469;BME280;2247;42.666;23.292;2023-02-14T10:37:59;95550.16;;;6.82;55.74
4469;BME280;2247;42.666;23.292;2023-02-14T10:40:46;95543.16;;;6.58;56.09
4469;BME280;2247;42.666;23.292;2023-02-14T10:43:39;95535.16;;;6.53;56.45
4469;BME280;2247;42.666;23.292;2023-02-14T10:46:17;95544.41;;;6.55;56.09
4469;BME280;2247;42.666;23.292;2023-02-14T10:48:55;95544.34;;;6.62;55.95
4469;BME280;2247;42.666;23.292;2023-02-14T10:51:31;95555.63;;;6.62;55.76
4469;BME280;2247;42.666;23.292;2023-02-14T10:54:15;95535.38;;;6.51;55.92
4469;BME280;2247;42.666;23.292;2023-02-14T10:56:49;95556.13;;;6.71;55.64
4469;BME280;2247;42.666;23.292;2023-02-14T10:59:21;95541.00;;;6.73;55.86
4469;BME280;2247;42.666;23.292;2023-02-14T11:01:51;95540.13;;;6.79;55.86
4469;BME280;2247;42.666;23.292;2023-02-14T11:04:24;95535.53;;;6.75;55.86
4469;BME280;2247;42.666;23.292;2023-02-14T11:06:52;95533.06;;;6.61;56.55
4469;BME280;2247;42.666;23.292;2023-02-14T11:09:21;95537.84;;;6.64;56.53
4469;BME280;2247;42.666;23.292;2023-02-14T11:11:51;95536.56;;;6.73;56.12
4469;BME280;2247;42.666;23.292;2023-02-14T11:14:24;95521.56;;;6.81;55.81
4469;BME280;2247;42.666;23.292;2023-02-14T11:16:55;95533.78;;;6.87;55.00
4469;BME280;2247;42.666;23.292;2023-02-14T11:19:25;95543.53;;;6.80;54.88
4469;BME280;2247;42.666;23.292;2023-02-14T11:21:55;95538.00;;;6.88;54.59
4469;BME280;2247;42.666;23.292;2023-02-14T11:24:31;95528.75;;;6.85;54.81
4469;BME280;2247;42.666;23.292;2023-02-14T11:27:02;95533.22;;;6.66;54.95
4469;BME280;2247;42.666;23.292;2023-02-14T11:29:35;95533.72;;;6.75;54.98
4469;BME280;2247;42.666;23.292;2023-02-14T11:32:07;95525.34;;;6.66;54.84
4469;BME280;2247;42.666;23.292;2023-02-14T11:34:37;95514.66;;;6.86;54.38
4469;BME280;2247;42.666;23.292;2023-02-14T11:37:24;95496.25;;;6.75;54.18
4469;BME280;2247;42.666;23.292;2023-02-14T11:39:57;95508.78;;;6.54;54.74
4469;BME280;2247;42.666;23.292;2023-02-14T11:42:39;95517.50;;;6.66;54.42
4469;BME280;2247;42.666;23.292;2023-02-14T11:45:26;95505.84;;;6.81;53.60
4469;BME280;2247;42.666;23.292;2023-02-14T11:48:17;95504.72;;;7.06;52.88
4469;BME280;2247;42.666;23.292;2023-02-14T11:50:53;95497.03;;;6.93;53.00
4469;BME280;2247;42.666;23.292;2023-02-14T11:53:23;95497.25;;;6.92;53.30
4469;BME280;2247;42.666;23.292;2023-02-14T11:55:55;95497.38;;;7.45;56.80
4469;BME280;2247;42.666;23.292;2023-02-14T11:58:34;95486.66;;;7.88;54.88
4469;BME280;2247;42.666;23.292;2023-02-14T12:01:03;95477.41;;;7.97;51.33
4469;BME280;2247;42.666;23.292;2023-02-14T12:03:36;95478.19;;;7.86;52.21
4469;BME280;2247;42.666;23.292;2023-02-14T12:06:05;95480.00;;;7.74;50.56
4469;BME280;2247;42.666;23.292;2023-02-14T12:08:32;95484.38;;;7.50;51.02
4469;BME280;2247;42.666;23.292;2023-02-14T12:11:04;95448.16;;;7.17;51.64
4469;BME280;2247;42.666;23.292;2023-02-14T12:13:32;95472.06;;;7.39;51.52
4469;BME280;2247;42.666;23.292;2023-02-14T12:15:59;95475.00;;;7.31;52.06
4469;BME280;2247;42.666;23.292;2023-02-14T12:18:50;95461.56;;;7.39;51.74
4469;BME280;2247;42.666;23.292;2023-02-14T12:21:38;95477.41;;;7.32;51.72
4469;BME280;2247;42.666;23.292;2023-02-14T12:24:16;95468.22;;;7.23;52.21
4469;BME280;2247;42.666;23.292;2023-02-14T12:26:52;95465.53;;;7.30;52.17
4469;BME280;2247;42.666;23.292;2023-02-14T12:29:23;95475.00;;;7.31;52.15
4469;BME280;2247;42.666;23.292;2023-02-14T12:31:53;95471.25;;;7.38;52.07
4469;BME280;2247;42.666;23.292;2023-02-14T12:34:22;95465.81;;;7.51;51.71
4469;BME280;2247;42.666;23.292;2023-02-14T12:37:06;95459.44;;;7.59;51.62
4469;BME280;2247;42.666;23.292;2023-02-14T12:39:37;95456.78;;;7.47;51.71
4469;BME280;2247;42.666;23.292;2023-02-14T12:42:21;95462.19;;;7.53;51.69
4469;BME280;2247;42.666;23.292;2023-02-14T12:45:03;95461.19;;;7.35;52.41
4469;BME280;2247;42.666;23.292;2023-02-14T12:47:41;95462.38;;;7.39;52.20
4469;BME280;2247;42.666;23.292;2023-02-14T12:50:23;95465.03;;;7.63;52.05
4469;BME280;2247;42.666;23.292;2023-02-14T12:56:06;95464.13;;;7.69;51.60
4469;BME280;2247;42.666;23.292;2023-02-14T12:58:48;95468.94;;;7.72;51.52
4469;BME280;2247;42.666;23.292;2023-02-14T13:01:40;95468.59;;;7.80;51.39
4469;BME280;2247;42.666;23.292;2023-02-14T13:04:43;95458.53;;;7.54;52.14
4469;BME280;2247;42.666;23.292;2023-02-14T13:07:21;95454.16;;;7.47;52.33
4469;BME280;2247;42.666;23.292;2023-02-14T13:09:57;95459.69;;;7.69;52.08
4469;BME280;2247;42.666;23.292;2023-02-14T13:12:32;95438.91;;;7.68;52.25
4469;BME280;2247;42.666;23.292;2023-02-14T13:15:14;95461.72;;;7.56;52.77
4469;BME280;2247;42.666;23.292;2023-02-14T13:17:46;95449.47;;;7.38;53.32
4469;BME280;2247;42.666;23.292;2023-02-14T13:20:30;95450.72;;;7.35;53.51
4469;BME280;2247;42.666;23.292;2023-02-14T13:23:02;95446.75;;;7.33;53.73
4469;BME280;2247;42.666;23.292;2023-02-14T13:25:34;95436.78;;;7.23;53.55
4469;BME280;2247;42.666;23.292;2023-02-14T13:28:10;95444.78;;;7.40;53.84
4469;BME280;2247;42.666;23.292;2023-02-14T13:30:39;95443.56;;;7.54;53.49
4469;BME280;2247;42.666;23.292;2023-02-14T13:33:14;95454.19;;;7.59;53.13
4469;BME280;2247;42.666;23.292;2023-02-14T13:35:46;95439.72;;;7.57;53.21
4469;BME280;2247;42.666;23.292;2023-02-14T13:38:15;95433.66;;;7.68;53.02
4469;BME280;2247;42.666;23.292;2023-02-14T13:40:44;95439.13;;;7.55;53.56
4469;BME280;2247;42.666;23.292;2023-02-14T13:43:11;95431.34;;;7.48;53.70
4469;BME280;2247;42.666;23.292;2023-02-14T13:46:05;95430.47;;;7.54;53.72
4469;BME280;2247;42.666;23.292;2023-02-14T13:48:32;95433.88;;;7.43;53.99
4469;BME280;2247;42.666;23.292;2023-02-14T13:51:00;95440.84;;;7.19;54.62
4469;BME280;2247;42.666;23.292;2023-02-14T13:53:37;95441.66;;;7.61;53.91
4469;BME280;2247;42.666;23.292;2023-02-14T13:56:32;95444.63;;;7.65;53.59
4469;BME280;2247;42.666;23.292;2023-02-14T13:59:02;95448.06;;;7.77;53.43